createdAt,value
2022-09-01T00:00:51.710Z,4.09
2022-09-01T00:03:23.818Z,4.24
2022-09-01T00:05:55.266Z,4.52
2022-09-01T00:08:24.348Z,4.23
2022-09-01T00:10:52.576Z,4.48
2022-09-01T00:13:20.217Z,4.78
2022-09-01T00:15:48.308Z,4.77
2022-09-01T00:18:15.989Z,4.90
2022-09-01T00:20:44.119Z,5.19
2022-09-01T00:23:15.826Z,5.43
2022-09-01T00:25:43.913Z,5.15
2022-09-01T00:28:14.742Z,5.45
2022-09-01T00:30:43.077Z,5.35
2022-09-01T00:33:13.358Z,5.74
2022-09-01T00:35:42.858Z,5.91
2022-09-01T00:38:11.799Z,5.52
2022-09-01T00:40:40.638Z,5.86
2022-09-01T00:43:44.648Z,5.56
2022-09-01T00:46:25.174Z,5.91
2022-09-01T00:49:21.290Z,5.78
2022-09-01T00:51:54.441Z,6.04
2022-09-01T00:54:30.863Z,5.78
2022-09-01T00:57:00.205Z,5.77
2022-09-01T00:59:29.908Z,6.30
2022-09-01T01:01:58.756Z,6.03
2022-09-01T01:04:26.633Z,6.27
2022-09-01T01:07:01.914Z,6.21
2022-09-01T01:09:40.149Z,6.32
2022-09-01T01:12:18.657Z,6.75
2022-09-01T01:14:51.368Z,6.54
2022-09-01T01:17:23.168Z,6.77
2022-09-01T01:20:14.164Z,6.76
2022-09-01T01:23:14.302Z,6.92
2022-09-01T01:25:49.012Z,6.97
2022-09-01T01:28:28.337Z,7.04
2022-09-01T01:31:13.339Z,6.62
2022-09-01T01:33:51.324Z,6.40
2022-09-01T01:36:33.869Z,6.71
2022-09-01T01:39:13.775Z,6.80
2022-09-01T01:41:49.508Z,6.80
2022-09-01T01:44:22.675Z,6.73
2022-09-01T01:46:53.146Z,6.61
2022-09-01T01:49:25.618Z,6.86
2022-09-01T01:51:57.972Z,6.94
2022-09-01T01:54:32.673Z,6.89
2022-09-01T01:57:04.441Z,7.34
2022-09-01T01:59:33.974Z,7.44
2022-09-01T02:02:08.793Z,6.98
2022-09-01T02:04:36.984Z,6.83
2022-09-01T02:07:15.141Z,6.84
2022-09-01T02:09:48.217Z,6.88
2022-09-01T02:12:21.310Z,7.21
2022-09-01T02:14:50.277Z,7.29
2022-09-01T02:17:17.980Z,7.28
2022-09-01T02:19:47.461Z,7.94
2022-09-01T02:22:16.834Z,8.35
2022-09-01T02:24:49.227Z,8.76
2022-09-01T02:27:20.380Z,8.55
2022-09-01T02:29:52.093Z,8.60
2022-09-01T02:32:22.088Z,8.17
2022-09-01T02:34:53.660Z,7.93
2022-09-01T02:37:25.929Z,8.01
2022-09-01T02:39:57.629Z,7.69
2022-09-01T02:42:29.793Z,7.84
2022-09-01T02:44:58.770Z,7.89
2022-09-01T02:47:28.092Z,7.39
2022-09-01T02:50:02.078Z,7.32
2022-09-01T02:52:35.589Z,7.73
2022-09-01T02:55:03.643Z,7.39
2022-09-01T02:57:34.560Z,7.50
2022-09-01T03:00:20.829Z,7.14
2022-09-01T03:02:53.241Z,7.12
2022-09-01T03:05:27.859Z,7.30
2022-09-01T03:07:58.114Z,7.27
2022-09-01T03:10:36.340Z,7.70
2022-09-01T03:13:08.977Z,7.12
2022-09-01T03:15:38.679Z,7.03
2022-09-01T03:18:08.338Z,7.07
2022-09-01T03:20:37.841Z,7.06
2022-09-01T03:23:11.950Z,7.20
2022-09-01T03:25:41.326Z,7.21
2022-09-01T03:28:13.819Z,7.64
2022-09-01T03:30:49.029Z,7.80
2022-09-01T03:33:19.848Z,7.60
2022-09-01T03:35:48.930Z,7.56
2022-09-01T03:38:21.070Z,7.42
2022-09-01T03:40:59.086Z,7.83
2022-09-01T03:43:35.646Z,8.01
2022-09-01T03:46:05.034Z,7.49
2022-09-01T03:48:33.690Z,7.84
2022-09-01T03:51:04.970Z,7.70
2022-09-01T03:53:37.888Z,8.07
2022-09-01T03:56:09.543Z,7.95
2022-09-01T03:58:39.283Z,8.01
2022-09-01T04:01:08.210Z,8.20
2022-09-01T04:03:42.428Z,7.70
2022-09-01T04:06:13.094Z,8.50
2022-09-01T04:08:43.134Z,8.29
2022-09-01T04:11:23.992Z,7.76
2022-09-01T04:13:53.969Z,8.21
2022-09-01T04:16:46.204Z,7.81
2022-09-01T04:19:20.661Z,7.67
2022-09-01T04:21:51.760Z,7.62
2022-09-01T04:24:21.372Z,7.89
2022-09-01T04:26:49.733Z,7.52
2022-09-01T04:29:19.784Z,7.46
2022-09-01T04:31:52.144Z,7.61
2022-09-01T04:34:24.798Z,7.61
2022-09-01T04:36:54.687Z,7.98
2022-09-01T04:39:23.652Z,7.56
2022-09-01T04:41:51.665Z,7.51
2022-09-01T04:44:20.248Z,7.70
2022-09-01T04:46:48.469Z,7.76
2022-09-01T04:49:26.528Z,8.07
2022-09-01T04:51:55.280Z,8.11
2022-09-01T04:54:24.948Z,7.82
2022-09-01T04:56:55.169Z,8.23
2022-09-01T04:59:27.093Z,8.31
2022-09-01T05:02:00.866Z,8.33
2022-09-01T05:04:35.180Z,8.53
2022-09-01T05:07:05.159Z,8.47
2022-09-01T05:09:39.064Z,8.43
2022-09-01T05:12:38.723Z,8.01
2022-09-01T05:15:09.607Z,7.65
2022-09-01T05:17:38.576Z,7.86
2022-09-01T05:20:08.132Z,8.07
2022-09-01T05:22:35.973Z,7.67
2022-09-01T05:25:13.760Z,7.79
2022-09-01T05:27:49.480Z,7.60
2022-09-01T05:30:18.891Z,7.56
2022-09-01T05:32:49.063Z,7.25
2022-09-01T05:35:18.758Z,7.58
2022-09-01T05:37:47.097Z,7.95
2022-09-01T05:40:16.303Z,7.64
2022-09-01T05:42:45.990Z,7.86
2022-09-01T05:45:20.545Z,7.64
2022-09-01T05:47:48.897Z,7.31
2022-09-01T05:50:19.998Z,7.58
2022-09-01T05:52:49.355Z,7.14
2022-09-01T05:55:20.476Z,6.96
2022-09-01T05:57:50.772Z,6.67
2022-09-01T06:00:18.680Z,6.70
2022-09-01T06:02:49.394Z,6.33
2022-09-01T06:05:22.062Z,6.34
2022-09-01T06:07:52.406Z,6.02
2022-09-01T06:10:20.306Z,6.01
2022-09-01T06:12:50.561Z,6.32
2022-09-01T06:15:22.854Z,6.06
2022-09-01T06:17:54.083Z,5.70
2022-09-01T06:20:22.969Z,5.77
2022-09-01T06:22:53.210Z,5.83
2022-09-01T06:25:23.314Z,5.41
2022-09-01T06:27:52.469Z,5.22
2022-09-01T06:30:25.143Z,5.05
2022-09-01T06:33:09.641Z,5.35
2022-09-01T06:35:43.246Z,4.90
2022-09-01T06:38:13.686Z,5.03
2022-09-01T06:40:45.521Z,4.99
2022-09-01T06:43:17.657Z,4.72
2022-09-01T06:45:54.757Z,4.64
2022-09-01T06:48:25.106Z,4.16
2022-09-01T06:51:21.282Z,4.38
2022-09-01T06:53:57.268Z,4.35
2022-09-01T06:56:41.558Z,3.88
2022-09-01T06:59:15.835Z,4.26
2022-09-01T07:01:49.965Z,4.22
2022-09-01T07:04:27.060Z,3.96
2022-09-01T07:07:53.405Z,3.76
2022-09-01T07:10:25.153Z,3.73
2022-09-01T07:13:24.769Z,3.92
2022-09-01T07:18:58.426Z,3.95
2022-09-01T07:21:41.938Z,3.83
2022-09-01T07:24:21.245Z,3.81
2022-09-01T07:27:09.601Z,3.83
2022-09-01T07:29:41.639Z,3.91
2022-09-01T07:35:01.737Z,3.61
2022-09-01T07:43:28.280Z,3.26
2022-09-01T07:51:57.154Z,3.13
2022-09-01T07:54:27.912Z,3.19
2022-09-01T07:56:59.690Z,3.29
2022-09-01T07:59:32.584Z,3.11
2022-09-01T08:02:06.644Z,2.93
2022-09-01T08:04:36.081Z,3.27
2022-09-01T08:07:05.807Z,2.96
2022-09-01T08:09:43.840Z,3.22
2022-09-01T08:12:14.952Z,2.90
2022-09-01T08:17:51.476Z,3.17
2022-09-01T08:20:20.467Z,3.03
2022-09-01T08:22:53.472Z,3.36
2022-09-01T08:25:26.878Z,3.44
2022-09-01T08:28:02.912Z,3.04
2022-09-01T08:30:32.733Z,3.07
2022-09-01T08:33:17.799Z,2.96
2022-09-01T08:35:49.511Z,3.11
2022-09-01T08:38:19.053Z,3.12
2022-09-01T08:40:56.597Z,2.90
2022-09-01T08:43:48.686Z,2.86
2022-09-01T08:46:25.460Z,3.22
2022-09-01T08:52:41.633Z,2.85
2022-09-01T08:55:35.682Z,3.02
2022-09-01T08:58:05.843Z,2.91
2022-09-01T09:01:36.136Z,2.89
2022-09-01T09:04:14.961Z,2.79
2022-09-01T09:07:05.718Z,2.85
2022-09-01T09:09:53.700Z,2.67
2022-09-01T09:12:48.914Z,2.73
2022-09-01T09:15:32.454Z,2.70
2022-09-01T09:18:34.474Z,2.82
2022-09-01T09:21:14.205Z,2.72
2022-09-01T09:23:48.059Z,2.76
2022-09-01T09:26:16.935Z,2.79
2022-09-01T09:28:51.284Z,2.58
2022-09-01T09:31:45.737Z,2.81
2022-09-01T09:34:36.567Z,2.44
2022-09-01T09:37:24.552Z,2.76
2022-09-01T09:40:13.077Z,2.72
2022-09-01T09:43:04.408Z,2.66
2022-09-01T09:45:36.185Z,2.60
2022-09-01T09:48:29.260Z,2.59
2022-09-01T09:51:15.488Z,2.46
2022-09-01T09:53:43.849Z,2.49
2022-09-01T09:56:24.355Z,2.59
2022-09-01T09:58:54.302Z,2.58
2022-09-01T10:01:25.238Z,2.56
2022-09-01T10:03:57.780Z,2.69
2022-09-01T10:06:47.506Z,2.55
2022-09-01T10:09:26.198Z,2.69
2022-09-01T10:11:57.975Z,2.12
2022-09-01T10:14:52.726Z,1.94
2022-09-01T10:17:44.441Z,2.15
2022-09-01T10:20:28.244Z,1.89
2022-09-01T10:22:57.229Z,2.19
2022-09-01T10:25:32.520Z,2.32
2022-09-01T10:28:20.778Z,2.32
2022-09-01T10:30:51.200Z,2.11
2022-09-01T10:33:22.440Z,2.21
2022-09-01T10:35:56.398Z,2.19
2022-09-01T10:38:28.688Z,1.96
2022-09-01T10:41:09.110Z,1.95
2022-09-01T10:43:47.202Z,1.58
2022-09-01T10:46:38.729Z,1.78
2022-09-01T10:49:25.265Z,1.63
2022-09-01T10:52:02.687Z,1.93
2022-09-01T10:54:51.329Z,2.00
2022-09-01T10:57:46.533Z,1.90
2022-09-01T11:00:41.439Z,1.94
2022-09-01T11:03:31.518Z,2.12
2022-09-01T11:06:13.189Z,1.98
2022-09-01T11:08:58.461Z,1.96
2022-09-01T11:11:35.459Z,1.74
2022-09-01T11:14:06.908Z,1.90
2022-09-01T11:16:46.949Z,1.69
2022-09-01T11:19:33.234Z,1.85
2022-09-01T11:22:14.725Z,1.85
2022-09-01T11:24:52.042Z,1.72
2022-09-01T11:27:50.500Z,2.02
2022-09-01T11:30:23.392Z,1.70
2022-09-01T11:33:06.918Z,1.77
2022-09-01T11:35:35.158Z,1.84
2022-09-01T11:38:07.495Z,1.95
2022-09-01T11:40:36.996Z,1.84
2022-09-01T11:43:17.839Z,1.65
2022-09-01T11:46:15.098Z,1.82
2022-09-01T11:48:53.104Z,1.66
2022-09-01T11:51:21.566Z,1.76
2022-09-01T11:53:52.638Z,1.66
2022-09-01T11:56:30.941Z,1.50
2022-09-01T11:58:58.965Z,1.87
2022-09-01T12:01:36.162Z,2.09
2022-09-01T12:04:22.844Z,1.92
2022-09-01T12:07:13.997Z,2.18
2022-09-01T12:09:48.136Z,2.11
2022-09-01T12:12:35.447Z,2.10
2022-09-01T12:15:18.839Z,2.34
2022-09-01T12:17:47.664Z,2.17
2022-09-01T12:20:30.147Z,2.01
2022-09-01T12:23:02.529Z,2.16
2022-09-01T12:25:34.317Z,2.06
2022-09-01T12:28:06.122Z,2.24
2022-09-01T12:30:39.611Z,2.26
2022-09-01T12:33:29.813Z,2.19
2022-09-01T12:36:24.336Z,2.44
2022-09-01T12:38:57.886Z,2.42
2022-09-01T12:41:32.757Z,2.37
2022-09-01T12:44:30.491Z,2.46
2022-09-01T12:47:06.809Z,2.36
2022-09-01T12:49:50.549Z,2.39
2022-09-01T12:52:26.088Z,2.31
2022-09-01T12:55:00.154Z,2.53
2022-09-01T12:57:51.310Z,2.52
2022-09-01T13:00:23.343Z,2.65
2022-09-01T13:05:42.494Z,2.86
2022-09-01T13:08:15.425Z,2.56
2022-09-01T13:10:51.576Z,2.73
2022-09-01T13:13:20.310Z,2.75
2022-09-01T13:15:54.510Z,2.58
2022-09-01T13:18:23.893Z,2.69
2022-09-01T13:20:53.448Z,2.94
2022-09-01T13:23:22.515Z,2.66
2022-09-01T13:25:50.995Z,2.59
2022-09-01T13:28:20.503Z,2.68
2022-09-01T13:36:52.112Z,2.64
2022-09-01T13:39:22.747Z,2.78
2022-09-01T13:41:50.887Z,2.84
2022-09-01T13:44:19.852Z,2.53
2022-09-01T13:50:04.963Z,2.65
2022-09-01T13:52:24.542Z,2.67
2022-09-01T13:54:52.240Z,2.82
2022-09-01T13:57:19.830Z,2.98
2022-09-01T13:59:47.637Z,2.42
2022-09-01T14:02:15.613Z,2.68
2022-09-01T14:04:44.300Z,2.98
2022-09-01T14:07:13.414Z,2.62
2022-09-01T14:09:41.853Z,2.63
2022-09-01T14:12:09.504Z,2.68
2022-09-01T14:17:25.266Z,2.66
2022-09-01T14:19:53.667Z,3.06
2022-09-01T14:22:21.520Z,2.90
2022-09-01T14:24:49.442Z,2.85
2022-09-01T14:27:17.200Z,2.88
2022-09-01T14:29:50.808Z,2.90
2022-09-01T14:32:24.496Z,2.87
2022-09-01T14:34:55.544Z,2.77
2022-09-01T14:37:24.180Z,2.76
2022-09-01T14:39:53.447Z,2.86
2022-09-01T14:42:22.155Z,2.88
2022-09-01T14:44:49.843Z,2.95
2022-09-01T14:47:19.438Z,3.20
2022-09-01T14:49:48.785Z,3.30
2022-09-01T14:52:18.297Z,3.08
2022-09-01T14:54:46.414Z,3.00
2022-09-01T14:57:36.779Z,3.29
2022-09-01T15:00:13.533Z,2.88
2022-09-01T15:02:43.685Z,3.06
2022-09-01T15:05:14.631Z,3.07
2022-09-01T15:07:43.769Z,3.18
2022-09-01T15:10:24.269Z,2.91
2022-09-01T15:12:54.231Z,3.19
2022-09-01T15:15:23.213Z,3.21
2022-09-01T15:17:50.890Z,3.18
2022-09-01T15:20:37.231Z,3.02
2022-09-01T15:23:06.426Z,2.93
2022-09-01T15:25:35.007Z,2.92
2022-09-01T15:28:03.501Z,3.03
2022-09-01T15:30:31.815Z,3.03
2022-09-01T15:32:59.405Z,3.06
2022-09-01T15:35:29.589Z,3.06
2022-09-01T15:37:58.214Z,3.05
2022-09-01T15:40:27.716Z,2.94
2022-09-01T15:42:57.999Z,3.23
2022-09-01T15:45:29.060Z,3.06
2022-09-01T15:47:57.054Z,2.94
2022-09-01T15:50:27.516Z,3.00
2022-09-01T15:53:01.965Z,2.71
2022-09-01T15:55:44.232Z,2.68
2022-09-01T15:58:14.955Z,2.93
2022-09-01T16:00:44.783Z,2.66
2022-09-01T16:03:15.661Z,2.77
2022-09-01T16:05:43.921Z,2.95
2022-09-01T16:08:14.356Z,3.20
2022-09-01T16:10:42.621Z,3.16
2022-09-01T16:13:13.835Z,3.10
2022-09-01T16:15:51.157Z,3.32
2022-09-01T16:18:24.805Z,3.01
2022-09-01T16:21:09.456Z,2.96
2022-09-01T16:23:46.098Z,3.41
2022-09-01T16:26:18.142Z,3.18
2022-09-01T16:28:52.798Z,3.24
2022-09-01T16:31:33.015Z,3.16
2022-09-01T16:34:07.307Z,3.42
2022-09-01T16:36:54.340Z,3.44
2022-09-01T16:39:41.491Z,3.33
2022-09-01T16:42:28.093Z,3.45
2022-09-01T16:45:07.547Z,3.21
2022-09-01T16:48:00.920Z,3.18
2022-09-01T16:50:46.925Z,3.24
2022-09-01T16:53:47.053Z,3.13
2022-09-01T16:56:35.300Z,3.44
2022-09-01T16:59:21.322Z,3.33
2022-09-01T17:02:03.572Z,3.14
2022-09-01T17:04:34.048Z,3.45
2022-09-01T17:07:30.036Z,3.42
2022-09-01T17:10:14.630Z,3.60
2022-09-01T17:12:53.256Z,3.05
2022-09-01T17:15:31.490Z,3.31
2022-09-01T17:18:22.429Z,3.46
2022-09-01T17:21:02.366Z,3.45
2022-09-01T17:23:42.816Z,3.33
2022-09-01T17:26:28.511Z,3.70
2022-09-01T17:29:07.014Z,3.42
2022-09-01T17:32:01.825Z,3.50
2022-09-01T17:34:49.911Z,3.43
2022-09-01T17:38:10.438Z,3.54
2022-09-01T17:41:19.594Z,3.46
2022-09-01T17:44:14.179Z,3.59
2022-09-01T17:46:58.402Z,3.31
2022-09-01T17:49:56.806Z,3.61
2022-09-01T17:52:36.611Z,3.60
2022-09-01T17:55:18.924Z,3.39
2022-09-01T17:58:04.771Z,3.42
2022-09-01T18:01:01.894Z,3.63
2022-09-01T18:03:59.307Z,3.48
2022-09-01T18:06:50.005Z,3.53
2022-09-01T18:09:21.535Z,3.59
2022-09-01T18:12:05.043Z,3.61
2022-09-01T18:14:46.579Z,3.50
2022-09-01T18:17:26.969Z,3.53
2022-09-01T18:20:08.573Z,3.78
2022-09-01T18:22:57.075Z,3.92
2022-09-01T18:25:33.822Z,3.80
2022-09-01T18:28:01.935Z,3.58
2022-09-01T18:31:01.317Z,3.92
2022-09-01T18:34:07.150Z,3.67
2022-09-01T18:37:18.845Z,4.01
2022-09-01T18:39:52.557Z,4.31
2022-09-01T18:42:44.610Z,4.42
2022-09-01T18:45:56.139Z,4.05
2022-09-01T18:48:42.735Z,4.18
2022-09-01T18:51:51.543Z,4.23
2022-09-01T18:54:28.109Z,4.13
2022-09-01T18:57:01.820Z,4.22
2022-09-01T18:59:37.053Z,4.24
2022-09-01T19:02:19.577Z,4.27
2022-09-01T19:04:57.380Z,4.67
2022-09-01T19:08:03.345Z,4.32
2022-09-01T19:10:35.488Z,4.20
2022-09-01T19:13:28.183Z,4.53
2022-09-01T19:16:18.390Z,4.23
2022-09-01T19:19:23.778Z,4.12
2022-09-01T19:21:59.590Z,4.43
2022-09-01T19:24:53.741Z,4.63
2022-09-01T19:27:30.585Z,4.84
2022-09-01T19:30:05.914Z,5.17
2022-09-01T19:32:36.900Z,4.74
2022-09-01T19:35:14.259Z,4.58
2022-09-01T19:37:47.873Z,4.49
2022-09-01T19:40:24.966Z,4.49
2022-09-01T19:42:56.948Z,4.53
2022-09-01T19:45:50.863Z,5.92
2022-09-01T19:48:28.188Z,7.10
2022-09-01T19:51:17.689Z,6.47
2022-09-01T19:53:59.453Z,6.68
2022-09-01T19:56:36.205Z,6.94
2022-09-01T19:59:50.615Z,5.96
2022-09-01T20:02:37.854Z,5.30
2022-09-01T20:05:09.426Z,5.03
2022-09-01T20:07:48.213Z,4.56
2022-09-01T20:10:23.361Z,4.35
2022-09-01T20:13:09.920Z,4.48
2022-09-01T20:16:09.398Z,4.59
2022-09-01T20:18:46.418Z,4.25
2022-09-01T20:21:20.973Z,4.17
2022-09-01T20:24:11.900Z,4.34
2022-09-01T20:26:58.233Z,4.52
2022-09-01T20:29:34.723Z,4.13
2022-09-01T20:32:04.120Z,4.35
2022-09-01T20:34:40.605Z,4.32
2022-09-01T20:37:37.642Z,4.80
2022-09-01T20:40:27.322Z,4.49
2022-09-01T20:43:01.197Z,4.82
2022-09-01T20:45:30.385Z,4.45
2022-09-01T20:48:02.501Z,4.82
2022-09-01T20:50:48.647Z,4.81
2022-09-01T20:53:31.668Z,4.73
2022-09-01T20:56:18.329Z,4.97
2022-09-01T20:59:15.971Z,4.65
2022-09-01T21:02:01.180Z,4.65
2022-09-01T21:05:00.794Z,4.63
2022-09-01T21:07:56.449Z,4.83
2022-09-01T21:11:00.502Z,4.47
2022-09-01T21:14:04.052Z,4.94
2022-09-01T21:16:32.500Z,5.02
2022-09-01T21:19:35.940Z,5.64
2022-09-01T21:22:19.854Z,6.35
2022-09-01T21:24:50.455Z,6.81
2022-09-01T21:27:45.024Z,8.57
2022-09-01T21:30:15.634Z,8.40
2022-09-01T21:32:43.771Z,7.46
2022-09-01T21:35:16.184Z,5.56
2022-09-01T21:37:44.528Z,4.82
2022-09-01T21:40:14.837Z,4.89
2022-09-01T21:42:56.619Z,4.54
2022-09-01T21:45:25.614Z,4.55
2022-09-01T21:47:54.705Z,4.60
2022-09-01T21:50:24.870Z,4.67
2022-09-01T21:52:52.981Z,4.71
2022-09-01T21:55:23.161Z,4.86
2022-09-01T21:57:52.321Z,4.66
2022-09-01T22:00:25.059Z,4.59
2022-09-01T22:02:53.837Z,4.80
2022-09-01T22:05:22.539Z,4.66
2022-09-01T22:07:50.753Z,4.31
2022-09-01T22:10:21.229Z,4.62
2022-09-01T22:12:50.322Z,4.73
2022-09-01T22:15:20.852Z,4.84
2022-09-01T22:17:50.547Z,4.64
2022-09-01T22:20:22.449Z,5.03
2022-09-01T22:22:51.337Z,4.76
2022-09-01T22:25:23.855Z,4.69
2022-09-01T22:27:51.658Z,4.51
2022-09-01T22:30:19.547Z,4.61
2022-09-01T22:32:48.051Z,4.22
2022-09-01T22:35:18.575Z,4.14
2022-09-01T22:37:46.961Z,4.28
2022-09-01T22:40:16.925Z,3.79
2022-09-01T22:42:46.394Z,4.18
2022-09-01T22:45:15.784Z,4.18
2022-09-01T22:47:44.012Z,3.83
2022-09-01T22:50:14.992Z,3.92
2022-09-01T22:52:43.887Z,3.88
2022-09-01T22:55:13.852Z,3.92
2022-09-01T22:57:42.383Z,3.68
2022-09-01T23:00:13.283Z,3.75
2022-09-01T23:02:41.192Z,3.84
2022-09-01T23:05:09.392Z,3.66
2022-09-01T23:07:39.597Z,3.80
2022-09-01T23:10:09.147Z,3.89
2022-09-01T23:12:36.857Z,3.69
2022-09-01T23:15:05.654Z,3.69
2022-09-01T23:17:33.295Z,3.50
2022-09-01T23:20:02.321Z,3.70
2022-09-01T23:22:30.127Z,3.29
2022-09-01T23:24:57.845Z,3.48
2022-09-01T23:27:25.535Z,3.48
2022-09-01T23:29:53.307Z,3.28
2022-09-01T23:32:21.235Z,3.45
2022-09-01T23:34:49.272Z,3.05
2022-09-01T23:37:17.053Z,2.79
2022-09-01T23:39:44.811Z,3.03
2022-09-01T23:42:15.508Z,3.42
2022-09-01T23:44:43.572Z,3.29
2022-09-01T23:47:14.428Z,3.33
2022-09-01T23:49:42.937Z,2.98
2022-09-01T23:52:13.463Z,3.10
2022-09-01T23:54:42.532Z,3.17
2022-09-01T23:57:11.689Z,2.99
2022-09-01T23:59:40.876Z,3.14
